Time;durP1;ratioP1;P1;durP2;ratioP2;P2;SDS_P1;SDS_P2;PMS_P1;PMS_P2;Temp;Humidity;BMP_temperature;BMP_pressure;BME280_temperature;BME280_humidity;BME280_pressure;Samples;Min_cycle;Max_cycle;Signal;HPM_P1;HPM_P2
2023/06/13 00:00:11;;;;;;;76.13;73.33;;;16.60;99.90;;;;;;5053745;28;20218;-89
2023/06/13 00:02:40;;;;;;;76.67;73.07;;;16.50;99.90;;;;;;5035788;28;20221;-88
2023/06/13 00:05:16;;;;;;;76.13;73.33;;;16.30;99.90;;;;;;5037725;28;20389;-88
2023/06/13 00:07:45;;;;;;;78.17;75.33;;;16.20;99.90;;;;;;5038909;28;20194;-89
2023/06/13 00:10:11;;;;;;;78.30;75.60;;;16.10;99.90;;;;;;5022781;28;20209;-89
2023/06/13 00:12:39;;;;;;;80.80;77.70;;;16.10;99.90;;;;;;5037727;28;20211;-88
2023/06/13 00:15:05;;;;;;;75.73;73.13;;;16.20;99.90;;;;;;5035741;28;20696;-88
2023/06/13 00:17:32;;;;;;;81.67;78.90;;;16.20;99.90;;;;;;5036925;28;20238;-86
2023/06/13 00:20:04;;;;;;;76.67;73.90;;;16.30;99.90;;;;;;5036110;28;20237;-89
2023/06/13 00:22:30;;;;;;;80.17;77.27;;;16.40;99.90;;;;;;5036572;28;20210;-89
2023/06/13 00:24:56;;;;;;;80.97;78.27;;;16.40;99.90;;;;;;5053667;28;20186;-89
2023/06/13 00:27:22;;;;;;;82.13;79.00;;;16.30;99.90;;;;;;5035849;28;20222;-89
2023/06/13 00:29:48;;;;;;;80.60;77.80;;;16.10;99.90;;;;;;5054556;28;20225;-89
2023/06/13 00:32:14;;;;;;;78.90;76.10;;;15.80;99.90;;;;;;5052679;28;20218;-89
2023/06/13 00:34:40;;;;;;;80.63;77.97;;;15.50;99.90;;;;;;5018995;28;20631;-89
2023/06/13 00:37:09;;;;;;;76.57;73.93;;;15.50;99.90;;;;;;5052027;28;20197;-88
2023/06/13 00:39:36;;;;;;;79.80;76.70;;;15.70;99.90;;;;;;5035662;28;20313;-88
2023/06/13 00:42:01;;;;;;;88.73;85.73;;;15.80;99.90;;;;;;5051161;28;20210;-89
2023/06/13 00:44:27;;;;;;;83.57;80.27;;;15.70;99.90;;;;;;5020205;28;20709;-90
2023/06/13 00:46:53;;;;;;;87.73;84.57;;;15.80;99.90;;;;;;5051214;28;20226;-90
2023/06/13 00:49:19;;;;;;;88.63;85.53;;;15.80;99.90;;;;;;5036989;28;21050;-88
2023/06/13 00:51:46;;;;;;;83.57;80.70;;;15.70;99.90;;;;;;5034183;28;20214;-87
2023/06/13 00:54:13;;;;;;;84.50;81.57;;;15.70;99.90;;;;;;5019766;28;20223;-88
2023/06/13 00:56:40;;;;;;;85.33;82.43;;;15.50;99.90;;;;;;5036884;28;20241;-90
2023/06/13 00:59:08;;;;;;;91.93;88.93;;;15.30;99.90;;;;;;5035938;28;20245;-88
2023/06/13 01:01:36;;;;;;;85.27;82.33;;;15.20;99.90;;;;;;5037393;28;20191;-88
2023/06/13 01:04:03;;;;;;;78.40;75.57;;;15.00;99.90;;;;;;5036186;28;20194;-87
2023/06/13 01:06:30;;;;;;;85.47;82.67;;;14.90;99.90;;;;;;5053550;28;20222;-89
2023/06/13 01:09:02;;;;;;;84.10;81.20;;;14.90;99.90;;;;;;5034546;28;20592;-88
2023/06/13 01:11:28;;;;;;;85.17;82.27;;;14.90;99.90;;;;;;5052814;28;20217;-87
2023/06/13 01:14:01;;;;;;;83.03;80.23;;;14.90;99.90;;;;;;5036675;28;20218;-88
2023/06/13 01:16:35;;;;;;;91.57;88.17;;;15.00;99.90;;;;;;5036633;28;20209;-85
2023/06/13 01:19:08;;;;;;;86.97;84.17;;;15.10;99.90;;;;;;5036740;28;20209;-87
2023/06/13 01:21:37;;;;;;;88.30;85.30;;;15.10;99.90;;;;;;5051934;28;20222;-87
2023/06/13 01:24:04;;;;;;;87.63;84.13;;;15.10;99.90;;;;;;5036096;28;20771;-88
2023/06/13 01:26:43;;;;;;;86.03;83.13;;;15.10;99.90;;;;;;5052262;28;20222;-89
2023/06/13 01:29:10;;;;;;;81.87;78.97;;;15.10;99.90;;;;;;5032191;28;20249;-87
2023/06/13 01:31:37;;;;;;;86.27;83.43;;;15.10;99.90;;;;;;5016502;28;20206;-87
2023/06/13 01:34:04;;;;;;;80.63;78.03;;;15.10;99.90;;;;;;5051656;28;20915;-86
2023/06/13 01:36:29;;;;;;;80.50;77.90;;;15.10;99.90;;;;;;5035651;28;20305;-89
2023/06/13 01:38:55;;;;;;;80.60;77.80;;;15.20;99.90;;;;;;5043714;28;21183;-88
2023/06/13 01:41:21;;;;;;;80.23;77.57;;;15.30;99.90;;;;;;5035232;28;20219;-87
2023/06/13 01:43:47;;;;;;;85.37;82.50;;;15.30;99.90;;;;;;5035563;28;20214;-87
2023/06/13 01:46:21;;;;;;;84.33;81.53;;;15.30;99.90;;;;;;5036155;28;20195;-88
2023/06/13 01:48:57;;;;;;;80.93;78.17;;;15.30;99.90;;;;;;5040723;28;20227;-89
2023/06/13 01:51:44;;;;;;;80.10;77.43;;;15.30;99.90;;;;;;5034122;28;20225;-87
2023/06/13 01:54:14;;;;;;;82.43;79.63;;;15.30;99.90;;;;;;5034713;28;20588;-87
2023/06/13 01:56:42;;;;;;;85.33;82.43;;;15.20;99.90;;;;;;5035667;28;20217;-88
2023/06/13 01:59:08;;;;;;;88.73;85.87;;;15.20;99.90;;;;;;5036444;28;20242;-87
2023/06/13 02:01:38;;;;;;;80.93;78.23;;;15.20;99.90;;;;;;5046030;28;20214;-88
2023/06/13 02:04:04;;;;;;;82.43;79.67;;;15.10;99.90;;;;;;5032421;28;20186;-89
2023/06/13 02:06:30;;;;;;;84.20;81.07;;;15.10;99.90;;;;;;5028401;28;20250;-90
2023/06/13 02:08:56;;;;;;;82.50;79.73;;;15.10;99.90;;;;;;5031647;28;20800;-88
2023/06/13 02:11:22;;;;;;;78.77;75.73;;;15.10;99.90;;;;;;5045458;28;20217;-90
2023/06/13 02:13:49;;;;;;;80.47;77.77;;;15.10;99.90;;;;;;5049000;28;20236;-87
2023/06/13 02:16:18;;;;;;;84.10;81.27;;;15.10;99.90;;;;;;5039112;28;21118;-87
2023/06/13 02:18:46;;;;;;;79.57;76.47;;;15.00;99.90;;;;;;5026951;28;20278;-87
2023/06/13 02:21:12;;;;;;;84.90;81.80;;;15.00;99.90;;;;;;5025558;28;20245;-89
2023/06/13 02:23:38;;;;;;;80.10;77.30;;;15.00;99.90;;;;;;5029652;28;20683;-87
2023/06/13 02:26:07;;;;;;;76.90;74.23;;;15.00;99.90;;;;;;5027012;28;20766;-89
2023/06/13 02:28:33;;;;;;;77.27;74.47;;;15.00;99.90;;;;;;5027305;28;20199;-88
2023/06/13 02:30:59;;;;;;;73.87;71.23;;;14.90;99.90;;;;;;5030621;28;20296;-87
2023/06/13 02:33:25;;;;;;;84.93;82.03;;;14.90;99.90;;;;;;5047240;28;20989;-87
2023/06/13 02:35:51;;;;;;;76.07;73.37;;;14.80;99.90;;;;;;5011789;28;20226;-88
2023/06/13 02:38:18;;;;;;;76.57;73.97;;;14.80;99.90;;;;;;5030840;28;20253;-87
2023/06/13 02:40:44;;;;;;;77.53;74.73;;;14.70;99.90;;;;;;5010982;28;20807;-88
2023/06/13 02:43:10;;;;;;;77.97;75.27;;;14.70;99.90;;;;;;5029456;28;20190;-89
2023/06/13 02:45:36;;;;;;;76.13;72.90;;;14.80;99.90;;;;;;5029776;28;20284;-87
2023/06/13 02:48:02;;;;;;;75.47;72.80;;;14.90;99.90;;;;;;5029295;28;20224;-88
2023/06/13 02:50:27;;;;;;;77.37;74.67;;;14.80;99.90;;;;;;5030146;28;20721;-87
2023/06/13 02:52:53;;;;;;;80.67;77.87;;;14.80;99.90;;;;;;5032026;28;20224;-88
2023/06/13 02:55:20;;;;;;;79.00;76.33;;;14.80;99.90;;;;;;5050131;28;20643;-87
2023/06/13 02:57:46;;;;;;;79.80;76.63;;;14.70;99.90;;;;;;5043303;28;20226;-87
2023/06/13 03:00:15;;;;;;;76.50;73.53;;;14.60;99.90;;;;;;5051527;28;20695;-89
2023/06/13 03:02:43;;;;;;;71.77;69.27;;;14.50;99.90;;;;;;5033646;28;20789;-87
2023/06/13 03:05:10;;;;;;;73.50;70.93;;;14.50;99.90;;;;;;5050761;28;20229;-88
2023/06/13 03:07:42;;;;;;;74.50;72.00;;;14.50;99.90;;;;;;5015628;28;20229;-88
2023/06/13 03:10:09;;;;;;;77.50;74.90;;;14.50;99.90;;;;;;5035192;28;20183;-88
2023/06/13 03:12:34;;;;;;;74.17;71.57;;;14.40;99.90;;;;;;5016733;28;20631;-88
2023/06/13 03:15:00;;;;;;;72.67;70.07;;;14.40;99.90;;;;;;5033839;28;20218;-88
2023/06/13 03:17:27;;;;;;;70.73;67.87;;;14.50;99.90;;;;;;5034028;28;20218;-87
2023/06/13 03:19:53;;;;;;;68.90;66.47;;;14.40;99.90;;;;;;5031193;28;20589;-88
2023/06/13 03:22:19;;;;;;;72.07;69.57;;;14.50;99.90;;;;;;5023814;28;20194;-88
2023/06/13 03:24:45;;;;;;;70.27;67.87;;;14.40;99.90;;;;;;5033013;28;20678;-87
2023/06/13 03:27:12;;;;;;;72.83;70.27;;;14.40;99.90;;;;;;5051617;28;20226;-87
2023/06/13 03:29:41;;;;;;;70.60;68.20;;;14.50;99.90;;;;;;5033670;28;20309;-88
2023/06/13 03:32:09;;;;;;;76.83;74.13;;;14.50;99.90;;;;;;5036662;28;20214;-88
2023/06/13 03:34:39;;;;;;;67.23;64.90;;;14.40;99.90;;;;;;5035692;28;20189;-87
2023/06/13 03:37:06;;;;;;;68.83;66.43;;;14.40;99.90;;;;;;5035512;28;20552;-87
2023/06/13 03:39:32;;;;;;;68.23;65.87;;;14.40;99.90;;;;;;5036250;28;20333;-88
2023/06/13 03:41:59;;;;;;;71.83;69.30;;;14.40;99.90;;;;;;5032933;28;20215;-88
2023/06/13 03:44:25;;;;;;;71.63;69.23;;;14.40;99.90;;;;;;5032945;28;20238;-88
2023/06/13 03:46:51;;;;;;;67.20;64.80;;;14.40;99.90;;;;;;5035969;28;20232;-90
2023/06/13 03:49:18;;;;;;;67.57;65.00;;;14.40;99.90;;;;;;5034029;28;20277;-89
2023/06/13 03:51:44;;;;;;;69.73;67.00;;;14.40;99.90;;;;;;5029876;28;20222;-89
2023/06/13 03:54:10;;;;;;;68.70;65.70;;;14.40;99.90;;;;;;5015677;28;20218;-89
2023/06/13 03:56:36;;;;;;;65.87;63.10;;;14.40;99.90;;;;;;5034191;28;20750;-89
2023/06/13 03:59:02;;;;;;;65.80;63.47;;;14.50;99.90;;;;;;5034490;28;20300;-89
2023/06/13 04:01:28;;;;;;;65.90;63.57;;;14.50;99.90;;;;;;5031938;28;20671;-88
2023/06/13 04:03:54;;;;;;;67.97;65.57;;;14.50;99.90;;;;;;5048665;28;20187;-90
2023/06/13 04:06:20;;;;;;;66.87;64.67;;;14.50;99.90;;;;;;5014415;28;20217;-89
2023/06/13 04:08:46;;;;;;;67.30;64.93;;;14.50;99.90;;;;;;5017003;28;20713;-89
2023/06/13 04:11:12;;;;;;;67.53;65.23;;;14.60;99.90;;;;;;5051287;28;20239;-88
2023/06/13 04:13:38;;;;;;;68.63;66.23;;;14.60;99.90;;;;;;5041906;28;20183;-88
2023/06/13 04:16:04;;;;;;;67.63;65.23;;;14.70;99.90;;;;;;5035498;28;20282;-88
2023/06/13 04:18:30;;;;;;;68.37;66.00;;;14.70;99.90;;;;;;5031779;28;20234;-89
2023/06/13 04:20:57;;;;;;;69.10;66.70;;;14.80;99.90;;;;;;5013829;28;20291;-86
2023/06/13 04:23:25;;;;;;;68.67;66.27;;;14.80;99.90;;;;;;5029557;28;20222;-86
2023/06/13 04:25:52;;;;;;;70.37;67.87;;;14.90;99.90;;;;;;5033203;28;20217;-86
2023/06/13 04:28:18;;;;;;;72.37;69.77;;;15.00;99.90;;;;;;5018394;28;20194;-89
2023/06/13 04:30:47;;;;;;;73.63;71.07;;;15.10;99.90;;;;;;5036649;28;21070;-88
2023/06/13 04:33:16;;;;;;;76.10;73.43;;;15.10;99.90;;;;;;5034366;28;20747;-88
2023/06/13 04:35:44;;;;;;;77.80;75.07;;;15.20;99.90;;;;;;5035611;28;20226;-89
2023/06/13 04:38:21;;;;;;;78.00;75.40;;;15.30;99.90;;;;;;5034319;28;20711;-90
2023/06/13 04:40:48;;;;;;;78.37;75.57;;;15.40;99.90;;;;;;5043185;28;20224;-89
2023/06/13 04:43:16;;;;;;;79.30;76.60;;;15.50;99.90;;;;;;5036319;28;20964;-87
2023/06/13 04:45:43;;;;;;;82.07;79.17;;;15.50;99.90;;;;;;5035858;28;20218;-88
2023/06/13 04:48:10;;;;;;;80.50;77.67;;;15.60;99.90;;;;;;5034900;28;20231;-89
2023/06/13 04:50:40;;;;;;;80.17;77.03;;;15.70;99.90;;;;;;5033209;28;20219;-88
2023/06/13 04:53:11;;;;;;;78.73;75.97;;;15.80;99.90;;;;;;5036296;28;20246;-91
2023/06/13 04:55:40;;;;;;;84.67;81.60;;;15.90;99.90;;;;;;5033075;28;20541;-88
2023/06/13 04:58:06;;;;;;;84.90;81.97;;;16.00;99.90;;;;;;5037478;28;20337;-90
2023/06/13 05:00:32;;;;;;;92.07;88.83;;;16.10;99.90;;;;;;5050228;28;20304;-87
2023/06/13 05:03:00;;;;;;;87.13;83.83;;;16.20;99.90;;;;;;5035057;28;20267;-90
2023/06/13 05:05:26;;;;;;;81.57;78.87;;;16.30;99.90;;;;;;5021156;28;20218;-89
2023/06/13 05:07:57;;;;;;;92.23;89.23;;;16.40;99.90;;;;;;5035481;28;20222;-87
2023/06/13 05:10:24;;;;;;;90.83;87.70;;;16.40;99.90;;;;;;5036054;28;20198;-86
2023/06/13 05:12:50;;;;;;;92.83;89.73;;;16.60;99.90;;;;;;5050250;28;20985;-88
2023/06/13 05:15:18;;;;;;;90.70;87.50;;;17.20;99.90;;;;;;5015482;28;20207;-87
2023/06/13 05:17:48;;;;;;;95.53;92.53;;;19.00;99.90;;;;;;5033935;28;20706;-88
2023/06/13 05:20:14;;;;;;;87.83;85.03;;;20.70;99.90;;;;;;5032438;28;20246;-89
2023/06/13 05:22:45;;;;;;;84.03;81.23;;;21.40;99.90;;;;;;5034926;28;20242;-89
2023/06/13 05:25:12;;;;;;;84.33;81.13;;;20.70;99.90;;;;;;5033637;28;20691;-88
2023/06/13 05:27:38;;;;;;;81.97;79.27;;;20.10;99.90;;;;;;5050831;28;20325;-88
2023/06/13 05:30:08;;;;;;;95.13;91.80;;;21.50;99.90;;;;;;5000287;28;20276;-88
2023/06/13 05:32:34;;;;;;;130.10;126.03;;;22.80;99.90;;;;;;5035078;28;20215;-87
2023/06/13 05:35:00;;;;;;;165.10;160.10;;;23.10;99.90;;;;;;5052006;28;21047;-88
2023/06/13 05:37:28;;;;;;;185.47;179.40;;;23.30;99.90;;;;;;5035102;28;20304;-86
2023/06/13 05:39:55;;;;;;;176.27;170.87;;;23.90;99.90;;;;;;5036729;28;20538;-88
2023/06/13 05:42:20;;;;;;;161.13;156.13;;;23.90;99.90;;;;;;5033983;28;20553;-90
2023/06/13 05:44:46;;;;;;;132.20;128.07;;;23.70;99.90;;;;;;5019872;28;20667;-89
2023/06/13 05:47:12;;;;;;;91.60;88.43;;;24.20;99.90;;;;;;5019400;28;20244;-88
2023/06/13 05:49:38;;;;;;;71.83;69.27;;;23.80;99.90;;;;;;5050925;28;20743;-88
2023/06/13 05:52:04;;;;;;;51.75;49.97;;;24.10;99.90;;;;;;5018915;28;20290;-90
2023/06/13 05:54:31;;;;;;;47.65;45.90;;;23.70;99.90;;;;;;5052448;28;20707;-90
2023/06/13 05:56:57;;;;;;;37.65;36.20;;;23.40;99.90;;;;;;5035865;28;20214;-90
2023/06/13 05:59:22;;;;;;;33.03;31.73;;;23.70;99.90;;;;;;5036699;28;20241;-89
2023/06/13 06:01:49;;;;;;;26.50;25.35;;;24.10;99.90;;;;;;5033987;28;20221;-89
2023/06/13 06:04:15;;;;;;;22.15;21.25;;;24.10;99.90;;;;;;5017223;28;20546;-89
2023/06/13 06:06:40;;;;;;;19.23;18.42;;;23.90;99.90;;;;;;5033527;28;20215;-89
2023/06/13 06:09:06;;;;;;;15.60;14.80;;;23.70;99.90;;;;;;5033115;28;20230;-89
2023/06/13 06:11:33;;;;;;;14.75;14.13;;;23.80;99.90;;;;;;5034214;28;20745;-89
2023/06/13 06:13:59;;;;;;;14.35;13.43;;;24.00;99.90;;;;;;5034984;28;20253;-89
2023/06/13 06:16:25;;;;;;;13.80;13.13;;;24.50;99.90;;;;;;5034120;28;20305;-89
2023/06/13 06:18:53;;;;;;;14.93;14.13;;;24.20;99.90;;;;;;5047439;28;20230;-88
2023/06/13 06:21:19;;;;;;;14.07;13.48;;;24.40;99.90;;;;;;5033718;28;20233;-90
2023/06/13 06:23:45;;;;;;;16.05;15.35;;;24.60;99.90;;;;;;5033717;28;20209;-89
2023/06/13 06:26:11;;;;;;;16.40;15.65;;;24.60;99.90;;;;;;5030051;28;20222;-89
2023/06/13 06:28:37;;;;;;;18.38;17.38;;;25.10;99.90;;;;;;5018132;28;20190;-90
2023/06/13 06:31:05;;;;;;;17.52;16.73;;;24.90;99.90;;;;;;5018447;28;20194;-90
2023/06/13 06:33:31;;;;;;;21.45;20.52;;;25.70;99.90;;;;;;5033316;28;20218;-90
2023/06/13 06:35:57;;;;;;;21.60;19.92;;;25.50;99.90;;;;;;5035228;28;20222;-90
2023/06/13 06:38:23;;;;;;;17.60;16.60;;;25.30;99.90;;;;;;5034447;28;20234;-90
2023/06/13 06:40:48;;;;;;;22.85;20.80;;;25.20;99.90;;;;;;5033036;28;20214;-89
2023/06/13 06:43:14;;;;;;;19.88;19.10;;;24.90;99.90;;;;;;5000842;28;20193;-88
2023/06/13 06:45:40;;;;;;;20.92;19.92;;;24.60;99.90;;;;;;5050024;28;20218;-89
2023/06/13 06:48:06;;;;;;;19.30;18.38;;;24.50;99.90;;;;;;5032613;28;20300;-90
2023/06/13 06:50:32;;;;;;;22.00;20.90;;;24.50;99.90;;;;;;5052678;28;20285;-90
2023/06/13 06:52:57;;;;;;;23.42;21.90;;;25.00;99.90;;;;;;5033801;28;20249;-89
2023/06/13 06:55:23;;;;;;;24.05;23.05;;;25.10;99.90;;;;;;5051095;28;20675;-89
2023/06/13 06:57:53;;;;;;;24.35;23.13;;;25.50;99.90;;;;;;5050259;28;20223;-90
2023/06/13 07:00:20;;;;;;;26.77;25.88;;;26.10;99.90;;;;;;5035379;28;20218;-89
2023/06/13 07:02:45;;;;;;;27.95;26.85;;;26.20;99.90;;;;;;5032544;28;20270;-89
2023/06/13 07:05:11;;;;;;;30.75;29.60;;;26.30;99.90;;;;;;5043206;28;20222;-90
2023/06/13 07:07:37;;;;;;;29.35;28.25;;;25.90;99.90;;;;;;5036374;28;20195;-89
2023/06/13 07:10:04;;;;;;;30.27;28.77;;;25.70;99.90;;;;;;5021288;28;20191;-90
2023/06/13 07:12:32;;;;;;;34.85;33.17;;;26.20;99.90;;;;;;5040361;28;20221;-89
2023/06/13 07:14:58;;;;;;;33.13;31.63;;;26.30;99.60;;;;;;5037679;28;20218;-90
2023/06/13 07:17:24;;;;;;;34.05;31.48;;;25.80;99.50;;;;;;5035533;28;20226;-89
2023/06/13 07:19:49;;;;;;;32.78;31.02;;;25.40;99.90;;;;;;5036980;28;20554;-90
2023/06/13 07:22:15;;;;;;;31.75;30.52;;;25.90;99.90;;;;;;5050168;28;20226;-91
2023/06/13 07:24:41;;;;;;;41.53;40.10;;;25.90;99.20;;;;;;5033301;28;20218;-89
2023/06/13 07:27:07;;;;;;;45.22;43.63;;;26.20;99.20;;;;;;5058007;28;20215;-89
2023/06/13 07:29:33;;;;;;;43.47;41.85;;;25.70;98.20;;;;;;5037957;28;20232;-89
2023/06/13 07:32:01;;;;;;;41.25;39.67;;;25.30;96.50;;;;;;5038744;28;20218;-90
2023/06/13 07:34:27;;;;;;;39.13;37.67;;;25.20;97.20;;;;;;5034983;28;20186;-89
2023/06/13 07:36:54;;;;;;;43.58;41.78;;;25.40;96.60;;;;;;5038408;28;20301;-88
2023/06/13 07:39:20;;;;;;;43.15;41.65;;;25.40;96.90;;;;;;5054152;28;20598;-90
2023/06/13 07:41:48;;;;;;;40.85;39.35;;;25.40;96.90;;;;;;5038918;28;20550;-90
2023/06/13 07:44:15;;;;;;;42.63;41.05;;;25.80;97.90;;;;;;5034376;28;20222;-90
2023/06/13 07:46:40;;;;;;;41.67;40.00;;;25.90;97.20;;;;;;5036560;28;20182;-89
2023/06/13 07:49:06;;;;;;;43.63;42.10;;;26.10;95.40;;;;;;5018698;28;20244;-91
2023/06/13 07:51:32;;;;;;;43.35;41.88;;;25.90;95.30;;;;;;5051654;28;20225;-91
2023/06/13 07:53:58;;;;;;;46.17;44.38;;;26.00;95.80;;;;;;5021898;28;20211;-90
2023/06/13 07:56:24;;;;;;;44.08;42.50;;;26.00;97.40;;;;;;5037961;28;20793;-90
2023/06/13 07:58:49;;;;;;;45.33;43.70;;;26.30;95.30;;;;;;5036011;28;20261;-90
2023/06/13 08:01:15;;;;;;;41.67;40.17;;;26.60;96.10;;;;;;5033690;28;20195;-90
2023/06/13 08:03:43;;;;;;;45.72;43.90;;;26.50;95.50;;;;;;5036032;28;20222;-91
2023/06/13 08:06:09;;;;;;;45.55;43.95;;;27.10;95.80;;;;;;5052663;28;20223;-90
2023/06/13 08:08:35;;;;;;;43.92;42.17;;;27.30;94.70;;;;;;5052303;28;20229;-88
2023/06/13 08:11:00;;;;;;;45.72;44.17;;;27.50;94.50;;;;;;5053637;28;20218;-89
2023/06/13 08:13:26;;;;;;;44.88;43.30;;;27.20;93.80;;;;;;5019834;28;20185;-82
2023/06/13 08:15:52;;;;;;;45.58;43.95;;;27.10;93.60;;;;;;5039713;28;20187;-88
2023/06/13 08:18:18;;;;;;;44.00;42.40;;;26.50;92.60;;;;;;5042758;28;20355;-87
2023/06/13 08:20:44;;;;;;;46.08;44.40;;;26.20;94.30;;;;;;5038839;28;20600;-89
2023/06/13 08:23:10;;;;;;;46.50;44.25;;;26.30;95.50;;;;;;5051966;28;20226;-90
2023/06/13 08:25:36;;;;;;;45.15;43.58;;;26.80;94.60;;;;;;5016664;28;20269;-87
2023/06/13 08:28:01;;;;;;;47.30;45.42;;;27.10;94.40;;;;;;5018791;28;20282;-88
2023/06/13 08:30:27;;;;;;;45.95;44.30;;;26.60;93.80;;;;;;5044765;28;20225;-88
2023/06/13 08:32:54;;;;;;;46.78;45.17;;;26.30;93.20;;;;;;5052783;28;20722;-89
2023/06/13 08:35:20;;;;;;;47.03;45.50;;;26.00;94.20;;;;;;5052662;28;20310;-89
2023/06/13 08:37:46;;;;;;;45.95;44.30;;;26.20;97.20;;;;;;5037044;28;20218;-88
2023/06/13 08:40:12;;;;;;;47.67;46.00;;;26.50;95.50;;;;;;5036545;28;21084;-89
2023/06/13 08:42:39;;;;;;;49.90;48.10;;;26.70;95.90;;;;;;5003793;28;20237;-88
2023/06/13 08:45:07;;;;;;;46.08;44.40;;;26.50;96.00;;;;;;5039805;28;20420;-87
2023/06/13 08:47:33;;;;;;;46.72;45.05;;;26.80;96.60;;;;;;5035902;28;20214;-90
2023/06/13 08:50:02;;;;;;;49.88;48.05;;;26.90;94.90;;;;;;5039487;28;20222;-89
2023/06/13 08:52:47;;;;;;;47.97;46.25;;;27.10;97.40;;;;;;5036084;28;20194;-88
2023/06/13 08:55:20;;;;;;;50.40;48.47;;;26.90;95.90;;;;;;5028145;28;20187;-89
2023/06/13 08:57:49;;;;;;;65.43;63.17;;;26.70;97.90;;;;;;5037344;28;20987;-89
2023/06/13 09:00:16;;;;;;;59.30;57.28;;;26.70;99.90;;;;;;5032084;28;20248;-90
2023/06/13 09:02:45;;;;;;;63.20;61.03;;;26.40;99.90;;;;;;5051491;28;20218;-89
2023/06/13 09:05:15;;;;;;;73.03;70.60;;;26.60;99.90;;;;;;5034247;28;20246;-88
2023/06/13 09:07:42;;;;;;;75.18;72.70;;;26.80;99.90;;;;;;5036648;28;20186;-91
2023/06/13 09:10:10;;;;;;;73.63;71.20;;;26.90;99.90;;;;;;5033270;28;20198;-88
2023/06/13 09:12:39;;;;;;;74.25;71.75;;;26.80;99.90;;;;;;5037391;28;20214;-89
2023/06/13 09:15:06;;;;;;;69.78;67.45;;;26.20;99.90;;;;;;5047854;28;20211;-88
2023/06/13 09:17:33;;;;;;;71.80;69.50;;;26.30;99.90;;;;;;5034032;28;20226;-88
2023/06/13 09:20:06;;;;;;;78.47;75.85;;;26.40;99.90;;;;;;5050984;28;20233;-88
2023/06/13 09:22:38;;;;;;;76.53;73.95;;;26.60;99.90;;;;;;5035276;28;20217;-88
2023/06/13 09:25:06;;;;;;;72.75;70.30;;;26.80;99.90;;;;;;5020674;28;20182;-88
2023/06/13 09:27:32;;;;;;;78.60;75.93;;;27.00;99.90;;;;;;5036401;28;20206;-89
2023/06/13 09:30:01;;;;;;;80.22;77.43;;;26.70;99.90;;;;;;5035345;28;20213;-90
2023/06/13 09:32:27;;;;;;;73.03;70.57;;;26.50;99.90;;;;;;5036939;28;20309;-87
2023/06/13 09:34:53;;;;;;;79.97;77.32;;;26.40;99.90;;;;;;5036140;28;20217;-88
2023/06/13 09:37:20;;;;;;;75.13;72.60;;;26.20;99.90;;;;;;5035079;28;20194;-88
2023/06/13 09:39:47;;;;;;;78.75;76.18;;;26.40;99.90;;;;;;5035032;28;20230;-89
2023/06/13 09:42:13;;;;;;;83.78;80.88;;;26.00;99.90;;;;;;5036039;28;20218;-88
2023/06/13 09:44:39;;;;;;;82.50;79.78;;;26.00;99.90;;;;;;5050653;28;20579;-88
2023/06/13 09:47:05;;;;;;;83.10;80.30;;;26.10;99.90;;;;;;5035669;28;20671;-87
2023/06/13 09:49:30;;;;;;;82.80;80.07;;;25.70;99.90;;;;;;5017175;28;20252;-87
2023/06/13 09:52:00;;;;;;;84.53;81.70;;;26.10;99.90;;;;;;5034869;28;20606;-88
2023/06/13 09:54:29;;;;;;;80.40;77.57;;;26.20;99.90;;;;;;5034690;28;20241;-89
2023/06/13 09:56:56;;;;;;;77.72;75.20;;;26.30;99.90;;;;;;5034774;28;20637;-87
2023/06/13 09:59:21;;;;;;;87.03;84.22;;;26.10;99.90;;;;;;5034228;28;20237;-88
2023/06/13 10:01:48;;;;;;;78.38;75.72;;;25.90;99.90;;;;;;5051474;28;20223;-88
2023/06/13 10:04:14;;;;;;;65.72;63.38;;;25.60;99.90;;;;;;5051411;28;20191;-88
2023/06/13 10:06:41;;;;;;;77.43;74.88;;;25.10;99.90;;;;;;5032853;28;20215;-88
2023/06/13 10:09:07;;;;;;;56.72;54.72;;;25.10;99.90;;;;;;5036290;28;20724;-89
2023/06/13 10:11:38;;;;;;;71.80;69.32;;;25.20;99.90;;;;;;5018040;28;20226;-89
2023/06/13 10:14:19;;;;;;;71.13;68.70;;;25.30;99.90;;;;;;5035235;28;20214;-90
2023/06/13 10:16:49;;;;;;;84.75;82.03;;;25.00;99.90;;;;;;5034869;28;20197;-88
2023/06/13 10:19:19;;;;;;;86.43;83.60;;;25.10;99.90;;;;;;5034138;28;20206;-88
2023/06/13 10:21:47;;;;;;;75.22;72.72;;;25.30;99.90;;;;;;5033412;28;20237;-88
2023/06/13 10:24:15;;;;;;;92.30;89.25;;;25.10;99.90;;;;;;5032307;28;20222;-88
2023/06/13 10:26:45;;;;;;;72.38;69.88;;;25.10;99.90;;;;;;5034557;28;20222;-88
2023/06/13 10:29:42;;;;;;;76.75;74.13;;;25.10;99.90;;;;;;5034299;28;20292;-87
2023/06/13 10:32:29;;;;;;;84.18;81.28;;;24.90;99.90;;;;;;5035346;28;20222;-88
2023/06/13 10:35:48;;;;;;;67.97;65.40;;;25.20;99.90;;;;;;5033538;28;20223;-88
2023/06/13 10:38:53;;;;;;;62.65;60.40;;;25.70;99.90;;;;;;5002720;28;20229;-90
2023/06/13 10:42:01;;;;;;;57.67;55.78;;;25.10;99.90;;;;;;5034063;28;20280;-88
2023/06/13 10:44:45;;;;;;;49.50;47.35;;;24.30;99.90;;;;;;5021248;28;20255;-88
2023/06/13 10:47:21;;;;;;;36.97;35.38;;;23.80;99.90;;;;;;5034850;28;21183;-87
2023/06/13 10:49:52;;;;;;;39.60;38.00;;;23.90;99.90;;;;;;5032173;28;20232;-89
2023/06/13 10:52:21;;;;;;;46.47;44.72;;;24.10;99.90;;;;;;5045942;28;20270;-88
2023/06/13 10:54:58;;;;;;;37.95;36.50;;;23.60;99.90;;;;;;5032072;28;20214;-89
2023/06/13 10:57:50;;;;;;;39.65;38.35;;;23.70;99.90;;;;;;5038457;28;20304;-89
2023/06/13 11:00:35;;;;;;;46.95;45.13;;;24.20;99.90;;;;;;5032452;28;20231;-88
2023/06/13 11:03:04;;;;;;;41.15;39.65;;;24.00;99.90;;;;;;5034582;28;20223;-89
2023/06/13 11:05:36;;;;;;;41.03;39.22;;;23.70;99.90;;;;;;5031894;28;20288;-89
2023/06/13 11:08:05;;;;;;;39.13;37.72;;;23.60;99.90;;;;;;5030828;28;20321;-88
2023/06/13 11:10:31;;;;;;;40.25;38.85;;;23.30;99.90;;;;;;5033791;28;20182;-89
2023/06/13 11:13:02;;;;;;;49.60;47.38;;;23.60;99.90;;;;;;5049834;28;20249;-90
2023/06/13 11:15:28;;;;;;;44.55;43.05;;;23.40;99.90;;;;;;5047657;28;20218;-88
2023/06/13 11:18:09;;;;;;;43.65;41.85;;;23.10;99.90;;;;;;5049269;28;20222;-89
2023/06/13 11:20:50;;;;;;;47.47;45.90;;;23.50;99.90;;;;;;5033757;28;21058;-89
2023/06/13 11:23:18;;;;;;;44.00;42.50;;;23.20;99.90;;;;;;5035579;28;20238;-90
2023/06/13 11:25:45;;;;;;;51.47;49.70;;;23.00;99.90;;;;;;5049795;28;20194;-89
2023/06/13 11:28:14;;;;;;;41.30;39.80;;;22.80;99.90;;;;;;5034626;28;20233;-89
2023/06/13 11:30:45;;;;;;;46.78;45.08;;;22.90;99.90;;;;;;5032388;28;20549;-92
2023/06/13 11:33:12;;;;;;;51.75;49.92;;;22.60;99.90;;;;;;5034992;28;20221;-90
2023/06/13 11:35:41;;;;;;;47.13;45.33;;;22.50;99.90;;;;;;5033199;28;20756;-90
2023/06/13 11:38:18;;;;;;;44.33;42.10;;;22.80;99.90;;;;;;5032062;28;20246;-91
2023/06/13 11:40:46;;;;;;;44.13;42.45;;;23.00;99.90;;;;;;5032618;28;20290;-86
2023/06/13 11:43:13;;;;;;;46.90;45.20;;;22.50;99.90;;;;;;5032509;28;20186;-89
2023/06/13 11:45:40;;;;;;;44.05;42.45;;;22.50;99.90;;;;;;5032765;28;20235;-88
2023/06/13 11:48:06;;;;;;;40.80;39.30;;;23.00;99.90;;;;;;5027475;28;20278;-87
2023/06/13 11:50:32;;;;;;;46.10;44.50;;;22.90;99.90;;;;;;5013392;28;20338;-90
2023/06/13 11:53:08;;;;;;;52.92;50.88;;;23.00;99.90;;;;;;5046341;28;20238;-89
2023/06/13 11:55:35;;;;;;;48.55;46.75;;;22.70;99.90;;;;;;5036174;28;21153;-86
2023/06/13 11:58:02;;;;;;;44.83;43.33;;;22.30;99.90;;;;;;5051493;28;20210;-87
2023/06/13 12:00:28;;;;;;;52.25;50.45;;;22.30;99.90;;;;;;5037096;28;20218;-88
2023/06/13 12:02:57;;;;;;;50.67;48.87;;;22.60;99.90;;;;;;5051666;28;20652;-89
2023/06/13 12:05:25;;;;;;;49.85;48.15;;;22.20;99.90;;;;;;5053696;28;20234;-88
2023/06/13 12:07:51;;;;;;;52.93;51.03;;;22.10;99.90;;;;;;5039608;28;20222;-87
2023/06/13 12:10:18;;;;;;;58.77;56.77;;;22.00;99.90;;;;;;5048986;28;20232;-88
2023/06/13 12:12:59;;;;;;;55.93;53.93;;;21.70;99.90;;;;;;5045672;28;20217;-86
2023/06/13 12:15:26;;;;;;;56.57;54.67;;;21.80;99.90;;;;;;5048192;28;20223;-87
2023/06/13 12:18:00;;;;;;;57.57;55.57;;;22.00;99.90;;;;;;5050031;28;20222;-87
2023/06/13 12:20:29;;;;;;;56.93;54.60;;;22.10;99.90;;;;;;5034643;28;20663;-88
2023/06/13 12:22:59;;;;;;;63.33;61.22;;;22.50;99.90;;;;;;5032674;28;20324;-88
2023/06/13 12:25:28;;;;;;;61.37;59.27;;;22.20;99.90;;;;;;5033725;28;20751;-88
2023/06/13 12:28:01;;;;;;;58.90;56.90;;;22.40;99.90;;;;;;5030398;28;20337;-87
2023/06/13 12:30:29;;;;;;;52.77;50.97;;;22.20;99.90;;;;;;5033066;28;20291;-88